createdAt,value
2023-05-03T06:14:59.068Z,3.30
2023-05-03T06:20:11.690Z,2.92
2023-05-03T06:25:17.829Z,2.20
2023-05-03T06:30:25.814Z,2.03
2023-05-03T06:35:30.109Z,1.98
2023-05-03T06:40:34.351Z,1.93
2023-05-03T06:45:44.372Z,1.70
2023-05-03T06:50:48.264Z,1.98
2023-05-03T06:55:52.217Z,2.27
2023-05-03T07:00:57.124Z,1.67
2023-05-03T07:06:01.213Z,2.35
2023-05-03T07:11:05.313Z,1.62
2023-05-03T07:16:10.409Z,1.85
2023-05-03T07:21:14.161Z,1.60
2023-05-03T07:26:17.661Z,1.70
2023-05-03T07:31:24.131Z,1.75
2023-05-03T07:36:27.687Z,1.70
2023-05-03T07:41:31.676Z,1.83
2023-05-03T07:46:36.723Z,1.55
2023-05-03T07:51:41.241Z,1.40
2023-05-03T08:01:49.589Z,1.45
2023-05-03T08:06:53.196Z,1.67
2023-05-03T08:11:56.946Z,1.27
2023-05-03T08:17:01.854Z,1.40
2023-05-03T08:22:05.729Z,1.52
2023-05-03T08:27:09.675Z,1.10
2023-05-03T08:32:14.514Z,1.10
2023-05-03T08:37:18.009Z,1.65
2023-05-03T08:42:22.868Z,1.20
2023-05-03T08:47:33.416Z,1.27
2023-05-03T08:52:37.318Z,1.02
2023-05-03T08:57:41.260Z,0.88
2023-05-03T09:02:46.791Z,1.73
2023-05-03T09:08:02.531Z,1.37
2023-05-03T09:13:06.556Z,1.12
2023-05-03T09:18:14.232Z,1.08
2023-05-03T09:23:18.352Z,0.95
2023-05-03T09:28:22.774Z,0.80
2023-05-03T09:33:31.813Z,0.85
2023-05-03T09:38:37.327Z,0.70
2023-05-03T09:43:50.787Z,0.62
2023-05-03T09:48:57.060Z,0.50
2023-05-03T09:54:00.992Z,0.82
2023-05-03T09:59:06.803Z,0.75
2023-05-03T10:04:12.404Z,0.85
2023-05-03T10:09:23.334Z,1.35
2023-05-03T10:14:27.093Z,0.70
2023-05-03T10:19:53.919Z,1.08
2023-05-03T10:25:10.864Z,1.00
2023-05-03T10:30:31.095Z,0.88
2023-05-03T10:35:36.064Z,0.75
2023-05-03T10:40:44.020Z,0.95
2023-05-03T10:45:48.967Z,0.80
2023-05-03T10:50:54.087Z,0.50
2023-05-03T10:56:05.937Z,0.90
2023-05-03T11:01:12.022Z,0.82
2023-05-03T11:06:34.488Z,0.98
2023-05-03T11:11:41.340Z,0.40
2023-05-03T11:16:50.722Z,0.90
2023-05-03T11:21:55.877Z,0.77
2023-05-03T11:26:59.463Z,0.68
2023-05-03T11:32:03.131Z,0.30
2023-05-03T11:37:09.720Z,1.12
2023-05-03T11:42:13.292Z,1.08
2023-05-03T11:47:17.262Z,1.35
2023-05-03T11:52:24.218Z,1.40
2023-05-03T11:57:27.839Z,1.02
2023-05-03T12:02:31.562Z,1.73
2023-05-03T12:07:37.740Z,1.15
2023-05-03T12:12:46.948Z,1.00
2023-05-03T12:18:00.180Z,1.15
2023-05-03T12:23:09.926Z,0.93
2023-05-03T12:28:20.448Z,0.93
2023-05-03T12:33:27.109Z,0.85
2023-05-03T12:38:36.915Z,0.90
2023-05-03T12:43:43.510Z,0.93
2023-05-03T12:48:47.554Z,1.30
2023-05-03T12:59:23.174Z,1.12
2023-05-03T13:04:55.863Z,0.90
2023-05-03T13:14:55.893Z,1.37
2023-05-03T13:19:59.534Z,0.80
2023-05-03T13:25:04.934Z,0.80
2023-05-03T13:30:10.079Z,0.80
2023-05-03T13:35:13.650Z,0.65
2023-05-03T13:40:18.976Z,0.70
2023-05-03T13:45:22.587Z,0.82
2023-05-03T13:50:26.136Z,0.98
2023-05-03T13:55:31.553Z,0.80
2023-05-03T14:00:35.030Z,0.75
2023-05-03T14:05:38.646Z,0.90
2023-05-03T14:10:44.129Z,0.55
2023-05-03T14:15:47.749Z,0.70
2023-05-03T14:20:51.401Z,0.62
2023-05-03T14:25:56.329Z,0.80
2023-05-03T14:31:00.328Z,0.77
2023-05-03T14:41:09.344Z,0.82
2023-05-03T14:46:12.952Z,0.98
2023-05-03T14:51:16.469Z,0.70
2023-05-03T14:56:21.515Z,0.88
2023-05-03T15:01:25.176Z,0.82
2023-05-03T15:06:30.779Z,0.70
2023-05-03T15:11:35.760Z,0.90
2023-05-03T15:16:39.706Z,0.90
2023-05-03T15:21:47.171Z,0.70
2023-05-03T15:26:52.454Z,0.90
2023-05-03T15:31:55.986Z,0.70
2023-05-03T15:36:59.817Z,0.90
2023-05-03T15:42:04.740Z,1.00
2023-05-03T15:47:08.278Z,0.80
2023-05-03T15:52:12.468Z,0.70
2023-05-03T15:57:17.379Z,0.90
2023-05-03T16:02:21.435Z,0.77
2023-05-03T16:07:26.558Z,0.70
2023-05-03T16:12:31.453Z,0.88
2023-05-03T16:17:35.533Z,0.80
2023-05-03T16:22:39.226Z,1.00
2023-05-03T16:27:44.506Z,1.00
2023-05-03T16:32:48.284Z,0.82
2023-05-03T16:37:52.931Z,1.00
2023-05-03T16:42:58.219Z,1.02
2023-05-03T16:48:04.811Z,0.85
2023-05-03T16:53:09.649Z,1.10
2023-05-03T16:58:14.734Z,0.90
2023-05-03T17:03:18.380Z,1.00
2023-05-03T17:08:22.089Z,1.00
2023-05-03T17:13:27.715Z,1.13
2023-05-03T17:18:31.250Z,1.10
2023-05-03T17:23:35.931Z,1.33
2023-05-03T17:28:41.566Z,0.90
2023-05-03T17:33:45.147Z,1.20
2023-05-03T17:38:48.683Z,1.40
2023-05-03T17:43:53.767Z,1.17
2023-05-03T17:48:58.497Z,2.10
2023-05-03T17:54:02.191Z,1.05
2023-05-03T17:59:07.147Z,1.15
2023-05-03T18:04:10.909Z,0.98
2023-05-03T18:09:14.527Z,1.20
2023-05-03T18:14:19.391Z,1.20
2023-05-03T18:19:22.911Z,1.20
2023-05-03T18:24:26.587Z,1.30
2023-05-03T18:29:31.479Z,1.30
2023-05-03T18:34:37.488Z,1.67
2023-05-03T18:39:41.017Z,1.27
2023-05-03T18:44:45.997Z,0.73
2023-05-03T18:49:52.708Z,1.27
2023-05-03T18:54:56.621Z,1.37
2023-05-03T19:00:01.767Z,1.00
2023-05-03T19:05:05.827Z,0.90
2023-05-03T19:10:10.667Z,1.02
2023-05-03T19:15:15.584Z,1.05
2023-05-03T19:20:19.401Z,1.10
2023-05-03T19:25:22.915Z,1.27
2023-05-03T19:30:27.967Z,1.00
2023-05-03T19:35:32.391Z,0.88
2023-05-03T19:45:44.458Z,1.23
2023-05-03T19:50:47.980Z,0.75
2023-05-03T19:55:58.622Z,1.23
2023-05-03T20:01:03.625Z,1.30
2023-05-03T20:06:07.221Z,1.10
2023-05-03T20:11:10.717Z,1.20
2023-05-03T20:16:15.797Z,1.33
2023-05-03T20:21:19.361Z,1.17
2023-05-03T20:26:22.877Z,1.17
2023-05-03T20:31:27.782Z,1.53
2023-05-03T20:36:31.479Z,1.00
2023-05-03T20:41:35.002Z,1.70
2023-05-03T20:46:40.465Z,1.25
2023-05-03T20:51:43.991Z,1.33
2023-05-03T20:56:47.563Z,1.70
2023-05-03T21:01:52.649Z,1.80
2023-05-03T21:06:56.263Z,1.48
2023-05-03T21:11:59.747Z,1.40
2023-05-03T21:17:05.120Z,1.10
2023-05-03T21:22:09.128Z,1.30
2023-05-03T21:27:12.625Z,2.30
2023-05-03T21:32:17.510Z,1.67
2023-05-03T21:37:21.325Z,1.58
2023-05-03T21:42:24.925Z,1.33
2023-05-03T21:47:31.163Z,1.43
2023-05-03T21:52:34.797Z,1.40
2023-05-03T21:57:38.376Z,1.50
2023-05-03T22:02:43.414Z,1.80
2023-05-03T22:07:48.671Z,1.35
2023-05-03T22:12:52.261Z,1.25
2023-05-03T22:17:58.203Z,1.43
2023-05-03T22:23:01.802Z,1.58
2023-05-03T22:28:05.405Z,1.50
